sensor_id;sensor_type;location;lat;lon;timestamp;pressure;altitude;pressure_sealevel;temperature;humidity
65997;BME280;52765;52.258;21.052;2023-12-07T00:01:35;101016.84;;;0.44;98.28
65997;BME280;52765;52.258;21.052;2023-12-07T00:04:01;101020.28;;;0.46;98.81
65997;BME280;52765;52.258;21.052;2023-12-07T00:06:26;101013.34;;;0.44;98.77
65997;BME280;52765;52.258;21.052;2023-12-07T00:08:51;101016.06;;;0.42;98.99
65997;BME280;52765;52.258;21.052;2023-12-07T00:11:17;101014.97;;;0.46;100.00
65997;BME280;52765;52.258;21.052;2023-12-07T00:13:42;101016.63;;;0.49;99.74
65997;BME280;52765;52.258;21.052;2023-12-07T00:16:08;101014.06;;;0.47;99.90
65997;BME280;52765;52.258;21.052;2023-12-07T00:18:33;101016.72;;;0.47;99.88
65997;BME280;52765;52.258;21.052;2023-12-07T00:20:58;101022.22;;;0.43;99.46
65997;BME280;52765;52.258;21.052;2023-12-07T00:23:23;101025.09;;;0.38;100.00
65997;BME280;52765;52.258;21.052;2023-12-07T00:25:49;101026.97;;;0.36;100.00
65997;BME280;52765;52.258;21.052;2023-12-07T00:28:14;101026.13;;;0.35;100.00
65997;BME280;52765;52.258;21.052;2023-12-07T00:30:43;101026.19;;;0.34;100.00
65997;BME280;52765;52.258;21.052;2023-12-07T00:33:08;101012.94;;;0.34;100.00
65997;BME280;52765;52.258;21.052;2023-12-07T00:35:34;101013.72;;;0.36;100.00
65997;BME280;52765;52.258;21.052;2023-12-07T00:37:59;101011.84;;;0.38;100.00
65997;BME280;52765;52.258;21.052;2023-12-07T00:40:25;101016.22;;;0.39;100.00
65997;BME280;52765;52.258;21.052;2023-12-07T00:42:50;101018.09;;;0.37;100.00
65997;BME280;52765;52.258;21.052;2023-12-07T00:45:16;101008.41;;;0.36;100.00
65997;BME280;52765;52.258;21.052;2023-12-07T00:47:41;101019.66;;;0.41;100.00
65997;BME280;52765;52.258;21.052;2023-12-07T00:50:07;101012.72;;;0.39;100.00
65997;BME280;52765;52.258;21.052;2023-12-07T00:52:32;101015.31;;;0.40;100.00
65997;BME280;52765;52.258;21.052;2023-12-07T00:54:58;101012.53;;;0.42;100.00
65997;BME280;52765;52.258;21.052;2023-12-07T00:57:23;101017.00;;;0.41;100.00
65997;BME280;52765;52.258;21.052;2023-12-07T00:59:48;101010.78;;;0.42;100.00
65997;BME280;52765;52.258;21.052;2023-12-07T01:02:14;101028.56;;;0.40;100.00
65997;BME280;52765;52.258;21.052;2023-12-07T01:04:39;101026.75;;;0.41;100.00
65997;BME280;52765;52.258;21.052;2023-12-07T01:07:05;101024.88;;;0.43;100.00
65997;BME280;52765;52.258;21.052;2023-12-07T01:09:30;101027.38;;;0.46;100.00
65997;BME280;52765;52.258;21.052;2023-12-07T01:11:55;101024.59;;;0.49;100.00
65997;BME280;52765;52.258;21.052;2023-12-07T01:14:20;101028.16;;;0.48;100.00
65997;BME280;52765;52.258;21.052;2023-12-07T01:16:46;101029.13;;;0.47;100.00
65997;BME280;52765;52.258;21.052;2023-12-07T01:19:11;101022.53;;;0.36;100.00
65997;BME280;52765;52.258;21.052;2023-12-07T01:21:39;101020.75;;;0.37;100.00
65997;BME280;52765;52.258;21.052;2023-12-07T01:24:08;101030.66;;;0.33;100.00
65997;BME280;52765;52.258;21.052;2023-12-07T01:26:33;101034.16;;;0.34;100.00
65997;BME280;52765;52.258;21.052;2023-12-07T01:28:58;101017.28;;;0.35;100.00
65997;BME280;52765;52.258;21.052;2023-12-07T01:31:24;101019.03;;;0.36;100.00
65997;BME280;52765;52.258;21.052;2023-12-07T01:33:49;101025.97;;;0.39;100.00
65997;BME280;52765;52.258;21.052;2023-12-07T01:36:14;101022.31;;;0.41;100.00
65997;BME280;52765;52.258;21.052;2023-12-07T01:38:39;101029.34;;;0.42;100.00
65997;BME280;52765;52.258;21.052;2023-12-07T01:41:05;101014.41;;;0.40;100.00
65997;BME280;52765;52.258;21.052;2023-12-07T01:43:30;101016.94;;;0.43;100.00
65997;BME280;52765;52.258;21.052;2023-12-07T01:45:58;101015.13;;;0.43;100.00
65997;BME280;52765;52.258;21.052;2023-12-07T01:48:25;101017.28;;;0.35;100.00
65997;BME280;52765;52.258;21.052;2023-12-07T01:50:54;101013.88;;;0.33;100.00
65997;BME280;52765;52.258;21.052;2023-12-07T01:53:21;101009.28;;;0.36;100.00
65997;BME280;52765;52.258;21.052;2023-12-07T01:55:46;101005.78;;;0.36;100.00
65997;BME280;52765;52.258;21.052;2023-12-07T01:58:16;101000.69;;;0.31;100.00
65997;BME280;52765;52.258;21.052;2023-12-07T02:00:42;101010.00;;;0.40;100.00
65997;BME280;52765;52.258;21.052;2023-12-07T02:03:07;101009.91;;;0.42;100.00
65997;BME280;52765;52.258;21.052;2023-12-07T02:05:33;101014.00;;;0.49;100.00
65997;BME280;52765;52.258;21.052;2023-12-07T02:07:58;101004.31;;;0.48;100.00
65997;BME280;52765;52.258;21.052;2023-12-07T02:10:24;101019.72;;;0.40;100.00
65997;BME280;52765;52.258;21.052;2023-12-07T02:12:49;101008.19;;;0.41;100.00
65997;BME280;52765;52.258;21.052;2023-12-07T02:15:14;101010.78;;;0.42;100.00
65997;BME280;52765;52.258;21.052;2023-12-07T02:22:42;101005.34;;;0.45;100.00
65997;BME280;52765;52.258;21.052;2023-12-07T02:25:09;101006.25;;;0.44;100.00
65997;BME280;52765;52.258;21.052;2023-12-07T02:27:41;101012.88;;;0.35;100.00
65997;BME280;52765;52.258;21.052;2023-12-07T02:30:08;101007.66;;;0.34;100.00
65997;BME280;52765;52.258;21.052;2023-12-07T02:32:34;101014.00;;;0.30;100.00
65997;BME280;52765;52.258;21.052;2023-12-07T02:35:00;101013.72;;;0.36;100.00
65997;BME280;52765;52.258;21.052;2023-12-07T02:37:27;101016.16;;;0.41;100.00
65997;BME280;52765;52.258;21.052;2023-12-07T02:39:52;101020.44;;;0.43;100.00
65997;BME280;52765;52.258;21.052;2023-12-07T02:42:18;101021.38;;;0.42;100.00
65997;BME280;52765;52.258;21.052;2023-12-07T02:44:44;101024.81;;;0.44;100.00
65997;BME280;52765;52.258;21.052;2023-12-07T02:47:10;101012.47;;;0.43;100.00
65997;BME280;52765;52.258;21.052;2023-12-07T02:49:35;101019.44;;;0.46;100.00
65997;BME280;52765;52.258;21.052;2023-12-07T02:52:00;101021.09;;;0.48;100.00
65997;BME280;52765;52.258;21.052;2023-12-07T02:54:26;101022.84;;;0.48;100.00
65997;BME280;52765;52.258;21.052;2023-12-07T02:56:51;101022.84;;;0.48;100.00
65997;BME280;52765;52.258;21.052;2023-12-07T02:59:16;101018.50;;;0.47;100.00
65997;BME280;52765;52.258;21.052;2023-12-07T03:01:42;101029.13;;;0.47;100.00
65997;BME280;52765;52.258;21.052;2023-12-07T03:04:07;101027.31;;;0.47;100.00
65997;BME280;52765;52.258;21.052;2023-12-07T03:06:32;101022.84;;;0.48;100.00
65997;BME280;52765;52.258;21.052;2023-12-07T03:08:57;101023.75;;;0.48;100.00
65997;BME280;52765;52.258;21.052;2023-12-07T03:11:23;101022.78;;;0.49;100.00
65997;BME280;52765;52.258;21.052;2023-12-07T03:13:49;101022.50;;;0.55;100.00
65997;BME280;52765;52.258;21.052;2023-12-07T03:16:14;101025.91;;;0.58;100.00
65997;BME280;52765;52.258;21.052;2023-12-07T03:18:40;101013.38;;;0.61;100.00
65997;BME280;52765;52.258;21.052;2023-12-07T03:21:05;101015.94;;;0.63;100.00
65997;BME280;52765;52.258;21.052;2023-12-07T03:23:31;101018.59;;;0.63;100.00
65997;BME280;52765;52.258;21.052;2023-12-07T03:25:56;101013.50;;;0.58;100.00
65997;BME280;52765;52.258;21.052;2023-12-07T03:28:22;101020.53;;;0.59;100.00
65997;BME280;52765;52.258;21.052;2023-12-07T03:30:47;101024.66;;;0.65;100.00
65997;BME280;52765;52.258;21.052;2023-12-07T03:33:12;101020.41;;;0.62;100.00
65997;BME280;52765;52.258;21.052;2023-12-07T03:35:37;101027.66;;;0.59;100.00
65997;BME280;52765;52.258;21.052;2023-12-07T03:38:03;101028.66;;;0.56;100.00
65997;BME280;52765;52.258;21.052;2023-12-07T03:40:28;101032.16;;;0.57;100.00
65997;BME280;52765;52.258;21.052;2023-12-07T03:42:53;101030.59;;;0.52;100.00
65997;BME280;52765;52.258;21.052;2023-12-07T03:45:19;101028.66;;;0.56;100.00
65997;BME280;52765;52.258;21.052;2023-12-07T03:47:44;101027.88;;;0.54;100.00
65997;BME280;52765;52.258;21.052;2023-12-07T03:50:10;101040.09;;;0.57;100.00
65997;BME280;52765;52.258;21.052;2023-12-07T03:52:35;101031.28;;;0.56;100.00
65997;BME280;52765;52.258;21.052;2023-12-07T03:55:00;101028.66;;;0.56;100.00
65997;BME280;52765;52.258;21.052;2023-12-07T03:57:26;101033.16;;;0.54;100.00
65997;BME280;52765;52.258;21.052;2023-12-07T03:59:51;101033.25;;;0.52;100.00
65997;BME280;52765;52.258;21.052;2023-12-07T04:02:18;101041.13;;;0.54;100.00
65997;BME280;52765;52.258;21.052;2023-12-07T04:04:43;101032.25;;;0.55;100.00
65997;BME280;52765;52.258;21.052;2023-12-07T04:07:09;101034.78;;;0.57;100.00
65997;BME280;52765;52.258;21.052;2023-12-07T04:09:34;101025.16;;;0.55;100.00
65997;BME280;52765;52.258;21.052;2023-12-07T04:11:59;101032.41;;;0.52;100.00
65997;BME280;52765;52.258;21.052;2023-12-07T04:14:26;101032.53;;;0.49;100.00
65997;BME280;52765;52.258;21.052;2023-12-07T04:16:51;101039.41;;;0.53;100.00
65997;BME280;52765;52.258;21.052;2023-12-07T04:19:16;101033.81;;;0.59;100.00
65997;BME280;52765;52.258;21.052;2023-12-07T04:21:42;101040.91;;;0.59;100.00
65997;BME280;52765;52.258;21.052;2023-12-07T04:24:07;101030.44;;;0.55;100.00
65997;BME280;52765;52.258;21.052;2023-12-07T04:26:32;101030.38;;;0.57;100.00
65997;BME280;52765;52.258;21.052;2023-12-07T04:28:58;101034.78;;;0.57;100.00
65997;BME280;52765;52.258;21.052;2023-12-07T04:31:23;101028.66;;;0.56;100.00
65997;BME280;52765;52.258;21.052;2023-12-07T04:33:48;101027.72;;;0.57;100.00
65997;BME280;52765;52.258;21.052;2023-12-07T04:36:14;101033.88;;;0.58;100.00
65997;BME280;52765;52.258;21.052;2023-12-07T04:38:39;101032.94;;;0.59;100.00
65997;BME280;52765;52.258;21.052;2023-12-07T04:41:05;101031.16;;;0.59;100.00
65997;BME280;52765;52.258;21.052;2023-12-07T04:43:30;101025.00;;;0.59;100.00
65997;BME280;52765;52.258;21.052;2023-12-07T04:45:55;101029.41;;;0.58;100.00
65997;BME280;52765;52.258;21.052;2023-12-07T04:48:21;101033.72;;;0.61;100.00
65997;BME280;52765;52.258;21.052;2023-12-07T04:50:46;101037.06;;;0.64;100.00
65997;BME280;52765;52.258;21.052;2023-12-07T04:53:11;101033.50;;;0.65;100.00
65997;BME280;52765;52.258;21.052;2023-12-07T04:55:40;101034.44;;;0.64;100.00
65997;BME280;52765;52.258;21.052;2023-12-07T04:58:05;101029.13;;;0.64;100.00
65997;BME280;52765;52.258;21.052;2023-12-07T05:00:30;101031.78;;;0.64;100.00
65997;BME280;52765;52.258;21.052;2023-12-07T05:02:56;101034.44;;;0.64;100.00
65997;BME280;52765;52.258;21.052;2023-12-07T05:05:21;101033.44;;;0.67;100.00
65997;BME280;52765;52.258;21.052;2023-12-07T05:07:46;101034.97;;;0.71;100.00
65997;BME280;52765;52.258;21.052;2023-12-07T05:10:12;101031.41;;;0.72;100.00
65997;BME280;52765;52.258;21.052;2023-12-07T05:12:37;101034.84;;;0.74;100.00
65997;BME280;52765;52.258;21.052;2023-12-07T05:15:02;101043.72;;;0.73;100.00
65997;BME280;52765;52.258;21.052;2023-12-07T05:17:29;101037.47;;;0.74;100.00
65997;BME280;52765;52.258;21.052;2023-12-07T05:19:54;101035.75;;;0.73;100.00
65997;BME280;52765;52.258;21.052;2023-12-07T05:22:20;101042.84;;;0.72;100.00
65997;BME280;52765;52.258;21.052;2023-12-07T05:24:46;101044.66;;;0.72;100.00
65997;BME280;52765;52.258;21.052;2023-12-07T05:27:11;101043.84;;;0.70;100.00
65997;BME280;52765;52.258;21.052;2023-12-07T05:29:37;101044.03;;;0.67;100.00
65997;BME280;52765;52.258;21.052;2023-12-07T05:32:02;101049.56;;;0.62;100.00
65997;BME280;52765;52.258;21.052;2023-12-07T05:34:29;101051.38;;;0.62;100.00
65997;BME280;52765;52.258;21.052;2023-12-07T05:36:54;101054.00;;;0.62;100.00
65997;BME280;52765;52.258;21.052;2023-12-07T05:39:20;101053.91;;;0.63;100.00
65997;BME280;52765;52.258;21.052;2023-12-07T05:41:45;101062.69;;;0.65;100.00
65997;BME280;52765;52.258;21.052;2023-12-07T05:44:12;101051.19;;;0.65;100.00
65997;BME280;52765;52.258;21.052;2023-12-07T05:46:37;101054.66;;;0.67;100.00
65997;BME280;52765;52.258;21.052;2023-12-07T05:49:05;101061.56;;;0.69;100.00
65997;BME280;52765;52.258;21.052;2023-12-07T05:51:30;101061.50;;;0.71;100.00
65997;BME280;52765;52.258;21.052;2023-12-07T05:53:55;101056.28;;;0.69;100.00
65997;BME280;52765;52.258;21.052;2023-12-07T05:56:20;101056.97;;;0.73;100.00
65997;BME280;52765;52.258;21.052;2023-12-07T05:58:46;101055.28;;;0.72;100.00
65997;BME280;52765;52.258;21.052;2023-12-07T06:01:12;101064.84;;;0.74;100.00
65997;BME280;52765;52.258;21.052;2023-12-07T06:03:37;101059.53;;;0.74;100.00
65997;BME280;52765;52.258;21.052;2023-12-07T06:06:03;101063.94;;;0.76;100.00
65997;BME280;52765;52.258;21.052;2023-12-07T06:08:29;101065.63;;;0.77;100.00
65997;BME280;52765;52.258;21.052;2023-12-07T06:10:54;101075.53;;;0.73;100.00
65997;BME280;52765;52.258;21.052;2023-12-07T06:13:19;101072.09;;;0.71;100.00
65997;BME280;52765;52.258;21.052;2023-12-07T06:15:44;101069.69;;;0.66;100.00
65997;BME280;52765;52.258;21.052;2023-12-07T06:18:10;101077.06;;;0.60;100.00
65997;BME280;52765;52.258;21.052;2023-12-07T06:20:35;101086.75;;;0.61;100.00
65997;BME280;52765;52.258;21.052;2023-12-07T06:23:00;101089.25;;;0.64;100.00
65997;BME280;52765;52.258;21.052;2023-12-07T06:25:27;101097.06;;;0.67;100.00
65997;BME280;52765;52.258;21.052;2023-12-07T06:27:52;101086.16;;;0.73;100.00
65997;BME280;52765;52.258;21.052;2023-12-07T06:30:18;101096.59;;;0.76;100.00
65997;BME280;52765;52.258;21.052;2023-12-07T06:32:43;101094.72;;;0.78;100.00
65997;BME280;52765;52.258;21.052;2023-12-07T06:35:11;101098.13;;;0.82;100.00
65997;BME280;52765;52.258;21.052;2023-12-07T06:37:37;101098.75;;;0.87;100.00
65997;BME280;52765;52.258;21.052;2023-12-07T06:40:02;101106.84;;;0.84;100.00
65997;BME280;52765;52.258;21.052;2023-12-07T06:42:29;101102.47;;;0.83;100.00
65997;BME280;52765;52.258;21.052;2023-12-07T06:44:55;101105.13;;;0.83;100.00
65997;BME280;52765;52.258;21.052;2023-12-07T06:47:20;101097.00;;;0.86;100.00
65997;BME280;52765;52.258;21.052;2023-12-07T06:49:45;101103.16;;;0.86;100.00
65997;BME280;52765;52.258;21.052;2023-12-07T06:52:11;101105.75;;;0.88;100.00
65997;BME280;52765;52.258;21.052;2023-12-07T06:54:37;101102.09;;;0.90;100.00
65997;BME280;52765;52.258;21.052;2023-12-07T06:57:03;101113.56;;;0.91;100.00
65997;BME280;52765;52.258;21.052;2023-12-07T06:59:29;101111.59;;;0.95;100.00
65997;BME280;52765;52.258;21.052;2023-12-07T07:01:54;101114.13;;;0.98;100.00
65997;BME280;52765;52.258;21.052;2023-12-07T07:04:19;101111.22;;;1.02;100.00
65997;BME280;52765;52.258;21.052;2023-12-07T07:06:45;101126.06;;;1.06;100.00
65997;BME280;52765;52.258;21.052;2023-12-07T07:09:10;101120.03;;;1.03;100.00
65997;BME280;52765;52.258;21.052;2023-12-07T07:11:37;101124.34;;;1.05;100.00
65997;BME280;52765;52.258;21.052;2023-12-07T07:14:03;101113.59;;;1.08;100.00
65997;BME280;52765;52.258;21.052;2023-12-07T07:16:28;101133.16;;;1.06;100.00
65997;BME280;52765;52.258;21.052;2023-12-07T07:18:53;101120.66;;;1.08;100.00
65997;BME280;52765;52.258;21.052;2023-12-07T07:21:19;101117.94;;;1.09;100.00
65997;BME280;52765;52.258;21.052;2023-12-07T07:23:47;101127.56;;;1.12;100.00
65997;BME280;52765;52.258;21.052;2023-12-07T07:26:12;101130.06;;;1.15;100.00
65997;BME280;52765;52.258;21.052;2023-12-07T07:28:42;101117.50;;;1.19;100.00
65997;BME280;52765;52.258;21.052;2023-12-07T07:31:10;101119.03;;;1.23;100.00
65997;BME280;52765;52.258;21.052;2023-12-07T07:33:35;101121.63;;;1.24;100.00
65997;BME280;52765;52.258;21.052;2023-12-07T07:36:01;101118.81;;;1.27;100.00
65997;BME280;52765;52.258;21.052;2023-12-07T07:38:26;101121.38;;;1.29;100.00
65997;BME280;52765;52.258;21.052;2023-12-07T07:40:52;101123.03;;;1.32;100.00
65997;BME280;52765;52.258;21.052;2023-12-07T07:43:17;101125.78;;;1.30;100.00
65997;BME280;52765;52.258;21.052;2023-12-07T07:45:43;101126.41;;;1.35;100.00
65997;BME280;52765;52.258;21.052;2023-12-07T07:48:08;101121.63;;;1.42;100.00
65997;BME280;52765;52.258;21.052;2023-12-07T07:50:34;101114.28;;;1.47;100.00
65997;BME280;52765;52.258;21.052;2023-12-07T07:53:01;101116.59;;;1.53;100.00
65997;BME280;52765;52.258;21.052;2023-12-07T07:55:26;101119.00;;;1.58;100.00
65997;BME280;52765;52.258;21.052;2023-12-07T07:57:52;101119.78;;;1.60;100.00
65997;BME280;52765;52.258;21.052;2023-12-07T08:00:17;101124.78;;;1.66;100.00
65997;BME280;52765;52.258;21.052;2023-12-07T08:02:44;101121.03;;;1.70;100.00
65997;BME280;52765;52.258;21.052;2023-12-07T08:05:12;101113.78;;;1.74;100.00
65997;BME280;52765;52.258;21.052;2023-12-07T08:07:41;101116.44;;;1.74;100.00
65997;BME280;52765;52.258;21.052;2023-12-07T08:10:07;101118.75;;;1.80;100.00
65997;BME280;52765;52.258;21.052;2023-12-07T08:12:33;101119.53;;;1.82;100.00
65997;BME280;52765;52.258;21.052;2023-12-07T08:14:59;101120.91;;;1.89;100.00
65997;BME280;52765;52.258;21.052;2023-12-07T08:17:24;101126.59;;;1.99;100.00
65997;BME280;52765;52.258;21.052;2023-12-07T08:19:51;101113.75;;;2.07;100.00
65997;BME280;52765;52.258;21.052;2023-12-07T08:22:16;101120.44;;;2.14;100.00
65997;BME280;52765;52.258;21.052;2023-12-07T08:24:42;101132.47;;;2.21;100.00
65997;BME280;52765;52.258;21.052;2023-12-07T08:27:07;101126.28;;;2.21;100.00
65997;BME280;52765;52.258;21.052;2023-12-07T08:29:33;101128.34;;;2.16;100.00
65997;BME280;52765;52.258;21.052;2023-12-07T08:31:59;101130.16;;;2.15;100.00
65997;BME280;52765;52.258;21.052;2023-12-07T08:34:24;101139.06;;;2.14;100.00
65997;BME280;52765;52.258;21.052;2023-12-07T08:36:50;101148.59;;;2.18;100.00
65997;BME280;52765;52.258;21.052;2023-12-07T08:39:15;101144.03;;;2.20;100.00
65997;BME280;52765;52.258;21.052;2023-12-07T08:41:40;101147.72;;;2.18;100.00
65997;BME280;52765;52.258;21.052;2023-12-07T08:44:06;101147.78;;;2.16;100.00
65997;BME280;52765;52.258;21.052;2023-12-07T08:46:31;101147.88;;;2.15;100.00
65997;BME280;52765;52.258;21.052;2023-12-07T08:49:01;101142.41;;;2.18;100.00
65997;BME280;52765;52.258;21.052;2023-12-07T08:51:27;101141.53;;;2.17;100.00
65997;BME280;52765;52.258;21.052;2023-12-07T08:53:52;101147.88;;;2.15;99.98
65997;BME280;52765;52.258;21.052;2023-12-07T08:56:18;101138.69;;;2.04;100.00
65997;BME280;52765;52.258;21.052;2023-12-07T08:58:43;101142.38;;;2.02;100.00
65997;BME280;52765;52.258;21.052;2023-12-07T09:01:09;101143.84;;;2.08;100.00
65997;BME280;52765;52.258;21.052;2023-12-07T09:03:34;101143.50;;;2.14;100.00
65997;BME280;52765;52.258;21.052;2023-12-07T09:06:00;101145.78;;;2.21;100.00
65997;BME280;52765;52.258;21.052;2023-12-07T09:08:25;101141.38;;;2.20;100.00
65997;BME280;52765;52.258;21.052;2023-12-07T09:10:51;101141.47;;;2.19;100.00
65997;BME280;52765;52.258;21.052;2023-12-07T09:13:16;101142.22;;;2.21;100.00
65997;BME280;52765;52.258;21.052;2023-12-07T09:15:42;101140.19;;;2.26;100.00
65997;BME280;52765;52.258;21.052;2023-12-07T09:18:07;101137.44;;;2.28;100.00
65997;BME280;52765;52.258;21.052;2023-12-07T09:20:32;101139.09;;;2.30;100.00
65997;BME280;52765;52.258;21.052;2023-12-07T09:23:01;101147.66;;;2.35;100.00
65997;BME280;52765;52.258;21.052;2023-12-07T09:25:26;101145.59;;;2.40;100.00
65997;BME280;52765;52.258;21.052;2023-12-07T09:27:53;101148.59;;;2.34;100.00
65997;BME280;52765;52.258;21.052;2023-12-07T09:30:18;101144.72;;;2.24;100.00
65997;BME280;52765;52.258;21.052;2023-12-07T09:32:44;101150.81;;;2.26;100.00
65997;BME280;52765;52.258;21.052;2023-12-07T09:35:09;101149.34;;;2.20;100.00
65997;BME280;52765;52.258;21.052;2023-12-07T09:37:40;101142.06;;;2.24;100.00
65997;BME280;52765;52.258;21.052;2023-12-07T09:40:05;101146.47;;;2.25;100.00
65997;BME280;52765;52.258;21.052;2023-12-07T09:42:32;101147.06;;;2.30;100.00
65997;BME280;52765;52.258;21.052;2023-12-07T09:44:57;101143.13;;;2.37;100.00
65997;BME280;52765;52.258;21.052;2023-12-07T09:47:23;101140.44;;;2.37;100.00
65997;BME280;52765;52.258;21.052;2023-12-07T09:49:48;101144.03;;;2.36;100.00
65997;BME280;52765;52.258;21.052;2023-12-07T09:52:17;101139.34;;;2.42;100.00
65997;BME280;52765;52.258;21.052;2023-12-07T09:54:43;101137.72;;;2.39;100.00
65997;BME280;52765;52.258;21.052;2023-12-07T09:57:08;101136.88;;;2.38;100.00
65997;BME280;52765;52.258;21.052;2023-12-07T09:59:36;101141.31;;;2.38;100.00
65997;BME280;52765;52.258;21.052;2023-12-07T10:02:02;101144.75;;;2.40;100.00
65997;BME280;52765;52.258;21.052;2023-12-07T10:04:27;101140.03;;;2.45;100.00
65997;BME280;52765;52.258;21.052;2023-12-07T10:06:53;101141.50;;;2.51;100.00
65997;BME280;52765;52.258;21.052;2023-12-07T10:09:19;101142.94;;;2.56;100.00
65997;BME280;52765;52.258;21.052;2023-12-07T10:11:45;101140.56;;;2.52;99.55
65997;BME280;52765;52.258;21.052;2023-12-07T10:14:11;101145.28;;;2.47;100.00
65997;BME280;52765;52.258;21.052;2023-12-07T10:16:37;101137.47;;;2.44;99.68
65997;BME280;52765;52.258;21.052;2023-12-07T10:19:23;101143.53;;;2.46;99.78
65997;BME280;52765;52.258;21.052;2023-12-07T10:21:48;101141.56;;;2.49;99.48
65997;BME280;52765;52.258;21.052;2023-12-07T10:24:15;101145.59;;;2.40;99.62
65997;BME280;52765;52.258;21.052;2023-12-07T10:26:41;101141.91;;;2.43;100.00
65997;BME280;52765;52.258;21.052;2023-12-07T10:29:06;101144.41;;;2.46;100.00
65997;BME280;52765;52.258;21.052;2023-12-07T10:31:33;101139.75;;;2.50;100.00
65997;BME280;52765;52.258;21.052;2023-12-07T10:33:59;101140.56;;;2.52;100.00
65997;BME280;52765;52.258;21.052;2023-12-07T10:36:25;101143.22;;;2.52;99.81
65997;BME280;52765;52.258;21.052;2023-12-07T10:38:50;101146.28;;;2.44;99.62
65997;BME280;52765;52.258;21.052;2023-12-07T10:41:19;101150.59;;;2.47;99.97
65997;BME280;52765;52.258;21.052;2023-12-07T10:43:47;101153.59;;;2.40;98.60
65997;BME280;52765;52.258;21.052;2023-12-07T10:46:14;101146.81;;;2.35;98.88
65997;BME280;52765;52.258;21.052;2023-12-07T10:48:41;101143.97;;;2.38;98.33
65997;BME280;52765;52.258;21.052;2023-12-07T10:51:09;101143.97;;;2.38;99.34
65997;BME280;52765;52.258;21.052;2023-12-07T10:53:40;101143.72;;;2.43;99.40
65997;BME280;52765;52.258;21.052;2023-12-07T10:56:13;101144.75;;;2.40;98.90
65997;BME280;52765;52.258;21.052;2023-12-07T10:58:41;101143.03;;;2.39;99.78
65997;BME280;52765;52.258;21.052;2023-12-07T11:01:07;101142.88;;;2.42;99.29
65997;BME280;52765;52.258;21.052;2023-12-07T11:03:32;101139.88;;;2.48;98.91
65997;BME280;52765;52.258;21.052;2023-12-07T11:05:58;101143.81;;;2.57;100.00
65997;BME280;52765;52.258;21.052;2023-12-07T11:13:35;101142.00;;;2.73;100.00
65997;BME280;52765;52.258;21.052;2023-12-07T11:16:01;101146.38;;;2.74;98.96
65997;BME280;52765;52.258;21.052;2023-12-07T11:18:27;101135.63;;;2.76;99.46
65997;BME280;52765;52.258;21.052;2023-12-07T11:20:54;101137.28;;;2.78;99.23
65997;BME280;52765;52.258;21.052;2023-12-07T11:23:20;101133.06;;;2.74;100.00
65997;BME280;52765;52.258;21.052;2023-12-07T11:25:46;101140.03;;;2.77;100.00
65997;BME280;52765;52.258;21.052;2023-12-07T11:28:11;101129.81;;;2.69;99.08
65997;BME280;52765;52.258;21.052;2023-12-07T11:30:46;101128.53;;;2.61;99.87
65997;BME280;52765;52.258;21.052;2023-12-07T11:33:12;101127.78;;;2.58;99.51
65997;BME280;52765;52.258;21.052;2023-12-07T11:38:37;101127.84;;;2.57;99.39
65997;BME280;52765;52.258;21.052;2023-12-07T11:41:05;101122.28;;;2.46;99.36
65997;BME280;52765;52.258;21.052;2023-12-07T11:46:08;101129.97;;;2.34;99.35
65997;BME280;52765;52.258;21.052;2023-12-07T11:48:34;101128.19;;;2.35;99.39
65997;BME280;52765;52.258;21.052;2023-12-07T11:51:03;101136.06;;;2.36;99.28
65997;BME280;52765;52.258;21.052;2023-12-07T11:53:35;101137.63;;;2.40;98.72
65997;BME280;52765;52.258;21.052;2023-12-07T11:56:01;101136.34;;;2.32;97.86
65997;BME280;52765;52.258;21.052;2023-12-07T11:58:27;101135.03;;;2.23;99.07
65997;BME280;52765;52.258;21.052;2023-12-07T12:00:54;101131.44;;;2.24;98.87
65997;BME280;52765;52.258;21.052;2023-12-07T12:03:21;101134.09;;;2.24;99.68
65997;BME280;52765;52.258;21.052;2023-12-07T12:05:47;101129.72;;;2.23;100.00
65997;BME280;52765;52.258;21.052;2023-12-07T12:08:12;101127.03;;;2.23;100.00
65997;BME280;52765;52.258;21.052;2023-12-07T12:10:39;101133.41;;;2.20;100.00
65997;BME280;52765;52.258;21.052;2023-12-07T12:13:05;101131.06;;;2.14;100.00
65997;BME280;52765;52.258;21.052;2023-12-07T12:15:31;101138.69;;;2.04;100.00
65997;BME280;52765;52.258;21.052;2023-12-07T12:17:57;101130.88;;;2.01;100.00
65997;BME280;52765;52.258;21.052;2023-12-07T12:20:22;101136.19;;;2.01;100.00
65997;BME280;52765;52.258;21.052;2023-12-07T12:22:51;101135.78;;;1.93;100.00
65997;BME280;52765;52.258;21.052;2023-12-07T12:25:19;101132.06;;;1.80;100.00
65997;BME280;52765;52.258;21.052;2023-12-07T12:27:46;101139.38;;;1.75;100.00
65997;BME280;52765;52.258;21.052;2023-12-07T12:30:11;101138.53;;;1.74;100.00
65997;BME280;52765;52.258;21.052;2023-12-07T12:32:44;101145.72;;;1.72;100.00
65997;BME280;52765;52.258;21.052;2023-12-07T12:35:09;101145.72;;;1.72;100.00
65997;BME280;52765;52.258;21.052;2023-12-07T12:37:38;101135.88;;;1.74;100.00
65997;BME280;52765;52.258;21.052;2023-12-07T12:40:06;101140.66;;;1.67;100.00
65997;BME280;52765;52.258;21.052;2023-12-07T12:42:32;101140.56;;;1.69;100.00
65997;BME280;52765;52.258;21.052;2023-12-07T12:44:57;101138.69;;;1.71;100.00
65997;BME280;52765;52.258;21.052;2023-12-07T12:47:22;101138.16;;;1.64;100.00
65997;BME280;52765;52.258;21.052;2023-12-07T12:49:48;101138.56;;;1.57;100.00